Time;durP1;ratioP1;P1;durP2;ratioP2;P2;SDS_P1;SDS_P2;PMS_P1;PMS_P2;Temp;Humidity;BMP_temperature;BMP_pressure;BME280_temperature;BME280_humidity;BME280_pressure;Samples;Min_cycle;Max_cycle;Signal;HPM_P1;HPM_P2
2022/01/07 00:00:49;;;;;;;;;;;3.70;99.90;;;;;;4261251;33;20014;-81
2022/01/07 00:03:18;;;;;;;;;;;3.70;99.90;;;;;;4261270;33;20062;-81
2022/01/07 00:05:45;;;;;;;;;;;3.70;99.90;;;;;;4261257;33;20055;-80
2022/01/07 00:08:18;;;;;;;;;;;3.70;99.90;;;;;;4261318;33;20011;-81
2022/01/07 00:10:46;;;;;;;;;;;3.70;99.90;;;;;;4261245;33;20006;-80
2022/01/07 00:13:13;;;;;;;;;;;3.70;99.90;;;;;;4261295;33;20010;-81
2022/01/07 00:15:44;;;;;;;;;;;3.70;99.90;;;;;;4261058;33;20037;-80
2022/01/07 00:18:12;;;;;;;;;;;3.70;99.90;;;;;;4261732;33;20014;-80
2022/01/07 00:20:39;;;;;;;;;;;3.70;99.90;;;;;;4260913;33;20058;-80
2022/01/07 00:23:06;;;;;;;;;;;3.70;99.90;;;;;;4261097;33;20067;-81
2022/01/07 00:25:34;;;;;;;;;;;3.70;99.90;;;;;;4260805;33;20450;-81
2022/01/07 00:28:03;;;;;;;;;;;3.70;99.90;;;;;;4261019;33;20042;-81
2022/01/07 00:30:33;;;;;;;;;;;3.70;99.90;;;;;;4260692;33;20082;-80
2022/01/07 00:33:03;;;;;;;;;;;3.70;99.90;;;;;;4261041;33;20031;-80
2022/01/07 00:35:32;;;;;;;;;;;3.70;99.90;;;;;;4260922;33;20066;-80
2022/01/07 00:38:08;;;;;;;;;;;3.70;99.90;;;;;;4249563;33;20355;-80
2022/01/07 00:40:35;;;;;;;;;;;3.70;99.90;;;;;;4261176;33;20019;-80
2022/01/07 00:43:02;;;;;;;;;;;3.70;99.90;;;;;;4261158;33;20014;-80
2022/01/07 00:45:32;;;;;;;;;;;3.70;99.90;;;;;;4261181;33;20015;-80
2022/01/07 00:48:02;;;;;;;;;;;3.70;99.90;;;;;;4260652;33;20069;-81
2022/01/07 00:50:33;;;;;;;;;;;3.70;99.90;;;;;;4261186;33;20021;-81
2022/01/07 00:53:03;;;;;;;;;;;3.70;99.90;;;;;;4260595;33;20037;-81
2022/01/07 00:55:31;;;;;;;;;;;3.70;99.90;;;;;;4261455;33;20067;-80
2022/01/07 00:58:03;;;;;;;;;;;3.70;99.90;;;;;;4260679;33;20062;-81
2022/01/07 01:00:33;;;;;;;;;;;3.70;99.90;;;;;;4261335;33;20010;-81
2022/01/07 01:03:06;;;;;;;;;;;3.70;99.90;;;;;;4260364;33;20062;-80
2022/01/07 01:05:36;;;;;;;;;;;3.70;99.90;;;;;;4261017;33;20360;-81
2022/01/07 01:08:03;;;;;;;;;;;3.70;99.90;;;;;;4260396;33;20375;-81
2022/01/07 01:10:33;;;;;;;;;;;3.70;99.90;;;;;;4272808;33;20348;-81
2022/01/07 01:13:00;;;;;;;;;;;3.70;99.90;;;;;;4260955;33;20022;-80
2022/01/07 01:15:33;;;;;;;;;;;3.70;99.90;;;;;;4260750;33;20084;-80
2022/01/07 01:18:03;;;;;;;;;;;3.70;99.90;;;;;;4260510;33;20042;-80
2022/01/07 01:20:32;;;;;;;;;;;3.70;99.90;;;;;;4260514;33;20003;-81
2022/01/07 01:23:05;;;;;;;;;;;3.60;99.90;;;;;;4272857;33;20435;-80
2022/01/07 01:25:32;;;;;;;;;;;3.60;99.90;;;;;;4260967;33;20082;-80
2022/01/07 01:28:02;;;;;;;;;;;3.60;99.90;;;;;;4261141;33;20020;-80
2022/01/07 01:30:33;;;;;;;;;;;3.60;99.90;;;;;;4273724;33;20011;-81
2022/01/07 01:33:06;;;;;;;;;;;3.60;99.90;;;;;;4260667;33;19995;-81
2022/01/07 01:35:38;;;;;;;;;;;3.60;99.90;;;;;;4260610;33;20006;-81
2022/01/07 01:38:10;;;;;;;;;;;3.60;99.90;;;;;;4260323;33;20005;-80
2022/01/07 01:40:42;;;;;;;;;;;3.60;99.90;;;;;;4260800;33;20058;-80
2022/01/07 01:43:12;;;;;;;;;;;3.60;99.90;;;;;;4260730;33;20054;-80
2022/01/07 01:45:42;;;;;;;;;;;3.60;99.90;;;;;;4261198;33;20054;-80
2022/01/07 01:48:20;;;;;;;;;;;3.60;99.90;;;;;;4263576;33;20007;-80
2022/01/07 01:50:47;;;;;;;;;;;3.60;99.90;;;;;;4263257;33;20141;-81
2022/01/07 01:53:17;;;;;;;;;;;3.60;99.90;;;;;;4263654;33;20078;-80
2022/01/07 01:55:50;;;;;;;;;;;3.60;99.90;;;;;;4263307;33;20011;-80
2022/01/07 01:58:23;;;;;;;;;;;3.60;99.90;;;;;;4263175;33;20086;-81
2022/01/07 02:00:53;;;;;;;;;;;3.60;99.90;;;;;;4262936;33;20074;-80
2022/01/07 02:03:28;;;;;;;;;;;3.60;99.90;;;;;;4262930;33;20399;-81
2022/01/07 02:06:01;;;;;;;;;;;3.60;99.90;;;;;;4262986;33;20058;-82
2022/01/07 02:08:31;;;;;;;;;;;3.60;99.90;;;;;;4263074;33;20015;-81
2022/01/07 02:11:04;;;;;;;;;;;3.60;99.90;;;;;;4274684;33;20066;-80
2022/01/07 02:13:31;;;;;;;;;;;3.60;99.90;;;;;;4262452;33;20046;-80
2022/01/07 02:15:58;;;;;;;;;;;3.60;99.90;;;;;;4262010;33;20285;-80
2022/01/07 02:18:26;;;;;;;;;;;3.60;99.90;;;;;;4261750;33;26667;-81
2022/01/07 02:20:53;;;;;;;;;;;3.60;99.90;;;;;;4261776;33;20975;-80
2022/01/07 02:23:20;;;;;;;;;;;3.60;99.90;;;;;;4262019;33;29342;-81
2022/01/07 02:25:49;;;;;;;;;;;3.60;99.90;;;;;;4262257;33;21320;-81
2022/01/07 02:28:16;;;;;;;;;;;3.60;99.90;;;;;;4262034;33;35870;-80
2022/01/07 02:30:43;;;;;;;;;;;3.60;99.90;;;;;;4261390;33;38739;-80
2022/01/07 02:33:10;;;;;;;;;;;3.60;99.90;;;;;;4262297;33;20006;-81
2022/01/07 02:35:41;;;;;;;;;;;3.60;99.90;;;;;;4262106;33;20231;-80
2022/01/07 02:38:08;;;;;;;;;;;3.60;99.90;;;;;;4262075;33;20017;-81
2022/01/07 02:40:35;;;;;;;;;;;3.60;99.90;;;;;;4261709;33;30546;-81
2022/01/07 02:43:02;;;;;;;;;;;3.60;99.90;;;;;;4262121;33;20006;-80
2022/01/07 02:45:29;;;;;;;;;;;3.60;99.90;;;;;;4261236;33;31756;-81
2022/01/07 02:47:58;;;;;;;;;;;3.60;99.90;;;;;;4261379;33;22633;-80
2022/01/07 02:50:30;;;;;;;;;;;3.60;99.90;;;;;;4262315;33;20014;-81
2022/01/07 02:52:57;;;;;;;;;;;3.60;99.90;;;;;;4262391;33;20089;-81
2022/01/07 02:55:28;;;;;;;;;;;3.60;99.90;;;;;;4261972;33;20059;-80
2022/01/07 02:57:57;;;;;;;;;;;3.60;99.90;;;;;;4262729;33;20011;-81
2022/01/07 03:00:25;;;;;;;;;;;3.60;99.90;;;;;;4262067;33;22997;-80
2022/01/07 03:02:53;;;;;;;;;;;3.60;99.90;;;;;;4261134;33;28944;-81
2022/01/07 03:05:20;;;;;;;;;;;3.60;99.90;;;;;;4261785;33;20011;-81
2022/01/07 03:07:48;;;;;;;;;;;3.60;99.90;;;;;;4261606;33;26637;-81
2022/01/07 03:10:17;;;;;;;;;;;3.60;99.90;;;;;;4261454;33;25291;-80
2022/01/07 03:12:44;;;;;;;;;;;3.60;99.90;;;;;;4261380;33;30775;-80
2022/01/07 03:15:12;;;;;;;;;;;3.60;99.90;;;;;;4262085;33;20022;-80
2022/01/07 03:17:40;;;;;;;;;;;3.60;99.90;;;;;;4261379;33;22076;-81
2022/01/07 03:20:08;;;;;;;;;;;3.60;99.90;;;;;;4249569;33;20066;-81
2022/01/07 03:22:35;;;;;;;;;;;3.60;99.90;;;;;;4261602;33;23686;-80
2022/01/07 03:25:03;;;;;;;;;;;3.70;99.90;;;;;;4261693;33;20504;-80
2022/01/07 03:27:30;;;;;;;;;;;3.60;99.90;;;;;;4272689;33;20006;-80
2022/01/07 03:29:58;;;;;;;;;;;3.60;99.90;;;;;;4260588;33;35774;-80
2022/01/07 03:32:25;;;;;;;;;;;3.60;99.90;;;;;;4260889;33;32232;-80
2022/01/07 03:34:52;;;;;;;;;;;3.70;99.90;;;;;;4248899;33;25525;-80
2022/01/07 03:37:19;;;;;;;;;;;3.60;99.90;;;;;;4261357;33;20019;-80
2022/01/07 03:39:49;;;;;;;;;;;3.60;99.90;;;;;;4260429;33;30739;-81
2022/01/07 03:42:24;;;;;;;;;;;3.60;99.90;;;;;;4261315;33;20025;-80
2022/01/07 03:44:54;;;;;;;;;;;3.70;99.90;;;;;;4261024;33;28979;-80
2022/01/07 03:47:22;;;;;;;;;;;3.60;99.90;;;;;;4260486;33;29290;-80
2022/01/07 03:49:49;;;;;;;;;;;3.60;99.90;;;;;;4261053;33;20030;-80
2022/01/07 03:52:16;;;;;;;;;;;3.60;99.90;;;;;;4261193;33;20019;-80
2022/01/07 03:54:44;;;;;;;;;;;3.60;99.90;;;;;;4261096;33;20408;-80
2022/01/07 03:57:14;;;;;;;;;;;3.60;99.90;;;;;;4260329;33;35843;-81
2022/01/07 03:59:43;;;;;;;;;;;3.60;99.90;;;;;;4260359;33;22527;-80
2022/01/07 04:02:10;;;;;;;;;;;3.60;99.90;;;;;;4260763;33;20042;-80
2022/01/07 04:04:38;;;;;;;;;;;3.60;99.90;;;;;;4261088;33;20137;-80
2022/01/07 04:07:05;;;;;;;;;;;3.60;99.90;;;;;;4261369;33;20029;-81
2022/01/07 04:09:35;;;;;;;;;;;3.60;99.90;;;;;;4261029;33;20002;-80
2022/01/07 04:12:03;;;;;;;;;;;3.60;99.90;;;;;;4260860;33;20318;-80
2022/01/07 04:14:30;;;;;;;;;;;3.60;99.90;;;;;;4260656;33;31142;-80
2022/01/07 04:16:59;;;;;;;;;;;3.60;99.90;;;;;;4261255;33;20100;-81
2022/01/07 04:19:26;;;;;;;;;;;3.60;99.90;;;;;;4260552;33;30267;-81
2022/01/07 04:21:58;;;;;;;;;;;3.60;99.90;;;;;;4260027;33;38395;-81
2022/01/07 04:24:29;;;;;;;;;;;3.60;99.90;;;;;;4272461;33;30299;-80
2022/01/07 04:26:59;;;;;;;;;;;3.60;99.90;;;;;;4260670;33;20033;-81
2022/01/07 04:29:26;;;;;;;;;;;3.60;99.90;;;;;;4259633;33;40757;-81
2022/01/07 04:32:01;;;;;;;;;;;3.60;99.90;;;;;;4260078;33;23767;-80
2022/01/07 04:34:31;;;;;;;;;;;3.50;99.90;;;;;;4260846;33;20077;-80
2022/01/07 04:37:00;;;;;;;;;;;3.50;99.90;;;;;;4272822;33;30076;-81
2022/01/07 04:39:32;;;;;;;;;;;3.50;99.90;;;;;;4260126;33;23615;-80
2022/01/07 04:42:03;;;;;;;;;;;3.50;99.90;;;;;;4260562;33;24141;-81
2022/01/07 04:44:30;;;;;;;;;;;3.50;99.90;;;;;;4260701;33;20021;-80
2022/01/07 04:46:57;;;;;;;;;;;3.50;99.90;;;;;;4259933;33;24711;-80
2022/01/07 04:49:27;;;;;;;;;;;3.50;99.90;;;;;;4259957;33;30913;-80
2022/01/07 04:51:57;;;;;;;;;;;3.50;99.90;;;;;;4260774;33;19995;-81
2022/01/07 04:54:32;;;;;;;;;;;3.50;99.90;;;;;;4260538;33;20360;-81
2022/01/07 04:57:02;;;;;;;;;;;3.50;99.90;;;;;;4260673;33;20016;-81
2022/01/07 04:59:32;;;;;;;;;;;3.50;99.90;;;;;;4260042;33;37845;-80
2022/01/07 05:02:02;;;;;;;;;;;3.50;99.90;;;;;;4260802;33;20028;-80
2022/01/07 05:04:33;;;;;;;;;;;3.50;99.90;;;;;;4260721;33;20003;-80
2022/01/07 05:07:00;;;;;;;;;;;3.50;99.90;;;;;;4259976;33;21230;-81
2022/01/07 05:09:27;;;;;;;;;;;3.50;99.90;;;;;;4260924;33;20003;-80
2022/01/07 05:11:54;;;;;;;;;;;3.50;99.90;;;;;;4259536;33;35237;-81
2022/01/07 05:14:24;;;;;;;;;;;3.50;99.90;;;;;;4260751;33;20010;-80
2022/01/07 05:16:51;;;;;;;;;;;3.50;99.90;;;;;;4261023;33;20021;-81
2022/01/07 05:19:24;;;;;;;;;;;3.50;99.90;;;;;;4261072;33;20080;-80
2022/01/07 05:21:54;;;;;;;;;;;3.50;99.90;;;;;;4262757;33;26357;-81
2022/01/07 05:24:21;;;;;;;;;;;3.50;99.90;;;;;;4262577;33;20018;-80
2022/01/07 05:26:49;;;;;;;;;;;3.50;99.90;;;;;;4263326;33;20424;-80
2022/01/07 05:29:16;;;;;;;;;;;3.50;99.90;;;;;;4262390;33;23175;-81
2022/01/07 05:31:43;;;;;;;;;;;3.50;99.90;;;;;;4262828;33;20014;-80
2022/01/07 05:34:12;;;;;;;;;;;3.50;99.90;;;;;;4263740;33;20003;-80
2022/01/07 05:36:42;;;;;;;;;;;3.50;99.90;;;;;;4262547;33;28232;-81
2022/01/07 05:39:09;;;;;;;;;;;3.60;99.90;;;;;;4262299;33;29047;-81
2022/01/07 05:41:37;;;;;;;;;;;3.50;99.90;;;;;;4262328;33;23486;-80
2022/01/07 05:44:07;;;;;;;;;;;3.50;99.90;;;;;;4262983;33;20018;-81
2022/01/07 05:46:34;;;;;;;;;;;3.60;99.90;;;;;;4263245;33;20003;-80
2022/01/07 05:49:01;;;;;;;;;;;3.50;99.90;;;;;;4262119;33;33834;-80
2022/01/07 05:51:41;;;;;;;;;;;3.50;99.90;;;;;;4264206;33;20437;-81
2022/01/07 05:54:10;;;;;;;;;;;3.60;99.90;;;;;;4262583;33;25809;-80
2022/01/07 05:56:38;;;;;;;;;;;3.60;99.90;;;;;;4261980;33;27550;-80
2022/01/07 05:59:07;;;;;;;;;;;3.60;99.90;;;;;;4262311;33;30832;-81
2022/01/07 06:01:37;;;;;;;;;;;3.60;99.90;;;;;;4262346;33;26699;-81
2022/01/07 06:04:05;;;;;;;;;;;3.60;99.90;;;;;;4262009;33;38206;-80
2022/01/07 06:06:35;;;;;;;;;;;3.60;99.90;;;;;;4250908;33;20394;-80
2022/01/07 06:09:02;;;;;;;;;;;3.60;99.90;;;;;;4262465;33;20018;-80
2022/01/07 06:11:29;;;;;;;;;;;3.60;99.90;;;;;;4261831;33;25400;-80
2022/01/07 06:13:56;;;;;;;;;;;3.60;99.90;;;;;;4261970;33;29498;-80
2022/01/07 06:16:23;;;;;;;;;;;3.60;99.90;;;;;;4262600;33;20028;-81
2022/01/07 06:18:54;;;;;;;;;;;3.60;99.90;;;;;;4250499;33;20438;-80
2022/01/07 06:21:21;;;;;;;;;;;3.60;99.90;;;;;;4262182;33;25485;-80
2022/01/07 06:23:51;;;;;;;;;;;3.60;99.90;;;;;;4262652;33;20047;-80
2022/01/07 06:26:18;;;;;;;;;;;3.60;99.90;;;;;;4262130;33;21252;-81
2022/01/07 06:28:45;;;;;;;;;;;3.60;99.90;;;;;;4262171;33;28823;-80
2022/01/07 06:31:12;;;;;;;;;;;3.60;99.90;;;;;;4261803;33;20020;-80
2022/01/07 06:33:40;;;;;;;;;;;3.60;99.90;;;;;;4261618;33;41480;-80
2022/01/07 06:36:07;;;;;;;;;;;3.60;99.90;;;;;;4261969;33;20003;-80
2022/01/07 06:38:34;;;;;;;;;;;3.60;99.90;;;;;;4262364;33;20033;-81
2022/01/07 06:41:01;;;;;;;;;;;3.60;99.90;;;;;;4262268;33;20005;-81
2022/01/07 06:43:31;;;;;;;;;;;3.60;99.90;;;;;;4262543;33;20028;-80
2022/01/07 06:45:59;;;;;;;;;;;3.60;99.90;;;;;;4273756;33;20464;-80
2022/01/07 06:48:31;;;;;;;;;;;3.60;99.90;;;;;;4262687;33;20046;-80
2022/01/07 06:51:01;;;;;;;;;;;3.60;99.90;;;;;;4262751;33;20409;-80
2022/01/07 06:53:30;;;;;;;;;;;3.60;99.90;;;;;;4262697;33;20014;-80
2022/01/07 06:55:57;;;;;;;;;;;3.60;99.90;;;;;;4262083;33;20405;-81
2022/01/07 06:58:26;;;;;;;;;;;3.60;99.90;;;;;;4262353;33;20055;-80
2022/01/07 07:00:53;;;;;;;;;;;3.60;99.90;;;;;;4261880;33;19995;-80
2022/01/07 07:03:21;;;;;;;;;;;3.60;99.90;;;;;;4261900;33;20017;-80
2022/01/07 07:05:48;;;;;;;;;;;3.60;99.90;;;;;;4262622;33;20007;-80
2022/01/07 07:08:16;;;;;;;;;;;3.70;99.90;;;;;;4262324;33;20019;-81
2022/01/07 07:10:43;;;;;;;;;;;3.60;99.90;;;;;;4261725;33;20371;-79
2022/01/07 07:13:10;;;;;;;;;;;3.60;99.90;;;;;;4273195;33;20003;-81
2022/01/07 07:15:37;;;;;;;;;;;3.60;99.90;;;;;;4272950;33;20013;-82
2022/01/07 07:18:04;;;;;;;;;;;3.60;99.90;;;;;;4261450;33;20033;-81
2022/01/07 07:20:31;;;;;;;;;;;3.60;99.90;;;;;;4274387;33;20069;-81
2022/01/07 07:22:58;;;;;;;;;;;3.60;99.90;;;;;;4261668;33;20003;-81
2022/01/07 07:25:26;;;;;;;;;;;3.60;99.90;;;;;;4261909;33;20011;-81
2022/01/07 07:27:56;;;;;;;;;;;3.60;99.90;;;;;;4273317;33;20009;-81
2022/01/07 07:30:24;;;;;;;;;;;3.70;99.90;;;;;;4261940;33;20031;-81
2022/01/07 07:32:56;;;;;;;;;;;3.60;99.90;;;;;;4274465;33;20007;-81
2022/01/07 07:38:09;;;;;;;;;;;3.60;99.90;;;;;;4274786;33;20394;-81
2022/01/07 07:40:36;;;;;;;;;;;3.60;99.90;;;;;;4261488;33;20066;-81
2022/01/07 07:43:04;;;;;;;;;;;3.60;99.90;;;;;;4272397;33;20007;-81
2022/01/07 07:45:31;;;;;;;;;;;3.60;99.90;;;;;;4261480;33;19991;-81
2022/01/07 07:47:58;;;;;;;;;;;3.60;99.90;;;;;;4261694;33;20036;-81
2022/01/07 07:50:25;;;;;;;;;;;3.60;99.90;;;;;;4261042;33;20381;-81
2022/01/07 07:52:52;;;;;;;;;;;3.60;99.90;;;;;;4261759;33;20062;-82
2022/01/07 07:55:22;;;;;;;;;;;3.60;99.90;;;;;;4273404;33;20085;-81
2022/01/07 07:57:49;;;;;;;;;;;3.70;99.90;;;;;;4261097;33;20081;-81
2022/01/07 08:00:17;;;;;;;;;;;3.60;99.90;;;;;;4273269;33;20027;-81
2022/01/07 08:02:44;;;;;;;;;;;3.60;99.90;;;;;;4260886;33;20021;-81
2022/01/07 08:05:17;;;;;;;;;;;3.60;99.90;;;;;;4261092;33;20015;-81
2022/01/07 08:07:44;;;;;;;;;;;3.60;99.90;;;;;;4273391;33;20022;-81
2022/01/07 08:10:21;;;;;;;;;;;3.60;99.90;;;;;;4272788;33;20021;-81
2022/01/07 08:13:24;;;;;;;;;;;3.60;99.90;;;;;;4261832;33;20018;-81
2022/01/07 08:15:59;;;;;;;;;;;3.60;99.90;;;;;;4273196;33;20055;-81
2022/01/07 08:18:33;;;;;;;;;;;3.60;99.90;;;;;;4272787;33;20062;-81
2022/01/07 08:21:01;;;;;;;;;;;3.60;99.90;;;;;;4261329;33;20085;-82
2022/01/07 08:23:29;;;;;;;;;;;3.60;99.90;;;;;;4260921;33;20437;-81
2022/01/07 08:25:56;;;;;;;;;;;3.60;99.90;;;;;;4260840;33;20010;-81
2022/01/07 08:28:29;;;;;;;;;;;3.60;99.90;;;;;;4272574;33;20047;-81
2022/01/07 08:31:01;;;;;;;;;;;3.60;99.90;;;;;;4261462;33;20042;-83
2022/01/07 08:36:15;;;;;;;;;;;3.60;99.90;;;;;;4273837;33;20018;-82
2022/01/07 08:38:42;;;;;;;;;;;3.60;99.90;;;;;;4260910;33;20007;-82
2022/01/07 08:41:10;;;;;;;;;;;3.60;99.90;;;;;;4273807;33;20527;-82
2022/01/07 08:43:40;;;;;;;;;;;3.60;99.90;;;;;;4260822;33;20011;-82
2022/01/07 08:46:10;;;;;;;;;;;3.70;99.90;;;;;;4272636;33;20390;-82
2022/01/07 08:48:40;;;;;;;;;;;3.60;99.90;;;;;;4260953;33;20022;-82
2022/01/07 08:51:11;;;;;;;;;;;3.60;99.90;;;;;;4260601;33;19991;-81
2022/01/07 08:53:38;;;;;;;;;;;3.60;99.90;;;;;;4272933;33;20017;-83
2022/01/07 08:56:16;;;;;;;;;;;3.60;99.90;;;;;;4276009;33;20022;-82
2022/01/07 08:58:44;;;;;;;;;;;3.60;99.90;;;;;;4277014;33;20024;-82
2022/01/07 09:01:16;;;;;;;;;;;3.70;99.90;;;;;;4263923;33;20017;-82
2022/01/07 09:03:47;;;;;;;;;;;3.60;99.90;;;;;;4274776;33;20450;-82
2022/01/07 09:06:14;;;;;;;;;;;3.60;99.90;;;;;;4275711;33;20085;-82
2022/01/07 09:08:44;;;;;;;;;;;3.70;99.90;;;;;;4264047;33;20044;-82
2022/01/07 09:11:12;;;;;;;;;;;3.60;99.90;;;;;;4263862;33;20041;-82
2022/01/07 09:13:41;;;;;;;;;;;3.60;99.90;;;;;;4275840;33;20028;-83
2022/01/07 09:16:11;;;;;;;;;;;3.70;99.90;;;;;;4263586;33;20390;-82
2022/01/07 09:18:41;;;;;;;;;;;3.70;99.90;;;;;;4275531;33;20405;-82
2022/01/07 09:21:12;;;;;;;;;;;3.70;99.90;;;;;;4275688;33;43211;-82
2022/01/07 09:23:42;;;;;;;;;;;3.70;99.90;;;;;;4275048;33;20006;-82
2022/01/07 09:26:11;;;;;;;;;;;3.70;99.90;;;;;;4262411;33;36838;-82
2022/01/07 09:28:39;;;;;;;;;;;3.70;99.90;;;;;;4274531;33;30382;-82
2022/01/07 09:31:08;;;;;;;;;;;3.70;99.90;;;;;;4262426;33;38680;-82
2022/01/07 09:33:38;;;;;;;;;;;3.70;99.90;;;;;;4262549;33;41691;-82
2022/01/07 09:36:30;;;;;;;;;;;3.70;99.90;;;;;;4276131;33;20121;-82
2022/01/07 09:39:00;;;;;;;;;;;3.70;99.90;;;;;;4263000;33;31865;-82
2022/01/07 09:41:29;;;;;;;;;;;3.70;99.90;;;;;;4274474;33;25350;-82
2022/01/07 09:43:57;;;;;;;;;;;3.80;99.90;;;;;;4262522;33;33223;-82
2022/01/07 09:46:28;;;;;;;;;;;3.80;99.90;;;;;;4275825;33;25517;-82
2022/01/07 09:48:55;;;;;;;;;;;3.80;99.90;;;;;;4263056;33;20006;-82
2022/01/07 09:51:22;;;;;;;;;;;3.80;99.90;;;;;;4262420;33;34827;-82
2022/01/07 09:53:49;;;;;;;;;;;3.80;99.90;;;;;;4273567;33;38550;-82
2022/01/07 09:56:22;;;;;;;;;;;3.80;99.90;;;;;;4262136;33;37169;-82
2022/01/07 09:58:52;;;;;;;;;;;3.80;99.90;;;;;;4261877;33;32993;-81
2022/01/07 10:01:25;;;;;;;;;;;3.90;99.90;;;;;;4261644;33;44219;-82
2022/01/07 10:03:52;;;;;;;;;;;3.80;99.90;;;;;;4261827;33;39440;-81
2022/01/07 10:06:25;;;;;;;;;;;3.90;99.90;;;;;;4249630;33;35702;-82
2022/01/07 10:08:59;;;;;;;;;;;3.90;99.90;;;;;;4262763;33;20022;-83
2022/01/07 10:11:26;;;;;;;;;;;3.90;99.90;;;;;;4263125;33;20078;-82
2022/01/07 10:14:13;;;;;;;;;;;3.90;99.90;;;;;;4276102;33;19999;-82
2022/01/07 10:16:51;;;;;;;;;;;3.90;99.90;;;;;;4274465;33;20023;-82
2022/01/07 10:19:50;;;;;;;;;;;3.90;99.90;;;;;;4263227;33;20427;-81
2022/01/07 10:22:20;;;;;;;;;;;3.90;99.90;;;;;;4245564;33;34910;-81
2022/01/07 10:24:53;;;;;;;;;;;4.00;99.90;;;;;;4261381;33;39372;-81
2022/01/07 10:27:20;;;;;;;;;;;3.90;99.90;;;;;;4262138;33;30950;-82
2022/01/07 10:29:51;;;;;;;;;;;4.00;99.90;;;;;;4275825;33;20409;-82
2022/01/07 10:32:19;;;;;;;;;;;4.00;99.90;;;;;;4262101;33;38647;-81
2022/01/07 10:35:03;;;;;;;;;;;4.00;99.90;;;;;;4262965;33;20025;-82
2022/01/07 10:37:30;;;;;;;;;;;4.00;99.90;;;;;;4262460;33;20405;-82
2022/01/07 10:39:57;;;;;;;;;;;4.00;99.90;;;;;;4275107;33;20025;-82
2022/01/07 10:42:30;;;;;;;;;;;4.00;99.90;;;;;;4274782;33;20011;-82
2022/01/07 10:45:01;;;;;;;;;;;4.00;99.90;;;;;;4262998;33;20061;-82
2022/01/07 10:47:31;;;;;;;;;;;4.10;99.90;;;;;;4273956;33;20019;-82
2022/01/07 10:50:13;;;;;;;;;;;4.10;99.90;;;;;;4274166;33;20009;-82
2022/01/07 10:52:40;;;;;;;;;;;4.10;99.90;;;;;;4273904;33;20022;-82
2022/01/07 10:55:12;;;;;;;;;;;4.10;99.90;;;;;;4249836;33;20003;-82
2022/01/07 10:57:41;;;;;;;;;;;4.10;99.90;;;;;;4262269;33;20009;-82
2022/01/07 11:00:10;;;;;;;;;;;4.10;99.90;;;;;;4261775;33;20793;-81
2022/01/07 11:02:37;;;;;;;;;;;4.10;99.90;;;;;;4273416;33;20010;-82
2022/01/07 11:05:10;;;;;;;;;;;4.10;99.90;;;;;;4262048;33;20424;-82
2022/01/07 11:07:40;;;;;;;;;;;4.10;99.90;;;;;;4273914;33;20440;-82
2022/01/07 11:10:07;;;;;;;;;;;4.10;99.90;;;;;;4262335;33;20015;-82
2022/01/07 11:12:37;;;;;;;;;;;4.10;99.90;;;;;;4273961;33;20025;-82
2022/01/07 11:15:08;;;;;;;;;;;4.20;99.90;;;;;;4262318;33;20015;-82
2022/01/07 11:17:41;;;;;;;;;;;4.20;99.90;;;;;;4273247;33;19999;-81
2022/01/07 11:20:12;;;;;;;;;;;4.20;99.90;;;;;;4274688;33;20054;-82
2022/01/07 11:22:46;;;;;;;;;;;4.20;99.90;;;;;;4273287;33;20018;-82
2022/01/07 11:25:15;;;;;;;;;;;4.20;99.90;;;;;;4274518;33;20015;-82
2022/01/07 11:27:48;;;;;;;;;;;4.20;99.90;;;;;;4261236;33;22130;-82
2022/01/07 11:30:19;;;;;;;;;;;4.20;99.90;;;;;;4261803;33;20023;-81
2022/01/07 11:32:50;;;;;;;;;;;4.20;99.90;;;;;;4261603;33;20026;-82
2022/01/07 11:35:21;;;;;;;;;;;4.30;99.90;;;;;;4261947;33;20020;-81
2022/01/07 11:37:50;;;;;;;;;;;4.30;99.90;;;;;;4273676;33;20408;-81
2022/01/07 11:40:33;;;;;;;;;;;4.30;99.90;;;;;;4261068;33;40506;-82
2022/01/07 11:43:08;;;;;;;;;;;4.30;99.90;;;;;;4273597;33;20018;-82
2022/01/07 11:45:35;;;;;;;;;;;4.30;99.90;;;;;;4274594;33;20025;-81
2022/01/07 11:48:11;;;;;;;;;;;4.30;99.90;;;;;;4261565;33;20018;-82
2022/01/07 11:50:59;;;;;;;;;;;4.30;99.90;;;;;;4271912;33;44520;-81
2022/01/07 11:53:46;;;;;;;;;;;4.30;99.90;;;;;;4274203;33;20044;-82
2022/01/07 11:56:19;;;;;;;;;;;4.30;99.90;;;;;;4244935;33;20026;-82
2022/01/07 11:58:51;;;;;;;;;;;4.30;99.90;;;;;;4273293;33;42375;-81
2022/01/07 12:01:21;;;;;;;;;;;4.30;99.90;;;;;;4273846;33;27244;-82
2022/01/07 12:03:49;;;;;;;;;;;4.30;99.90;;;;;;4261153;33;28673;-81
2022/01/07 12:06:26;;;;;;;;;;;4.30;99.90;;;;;;4271425;33;45976;-82
2022/01/07 12:08:59;;;;;;;;;;;4.40;99.90;;;;;;4271708;33;41246;-81
2022/01/07 12:11:28;;;;;;;;;;;4.30;99.90;;;;;;4261422;33;20017;-82
2022/01/07 12:13:56;;;;;;;;;;;4.30;99.90;;;;;;4273740;33;20044;-81
2022/01/07 12:16:33;;;;;;;;;;;4.30;99.90;;;;;;4261303;33;20006;-82
2022/01/07 12:19:19;;;;;;;;;;;4.40;99.90;;;;;;4273686;33;20413;-82
2022/01/07 12:21:49;;;;;;;;;;;4.40;99.90;;;;;;4271780;33;38153;-81
2022/01/07 12:24:24;;;;;;;;;;;4.40;99.90;;;;;;4274148;33;20059;-81
2022/01/07 12:27:04;;;;;;;;;;;4.40;99.90;;;;;;4272901;33;20028;-82
2022/01/07 12:29:37;;;;;;;;;;;4.40;99.90;;;;;;4272147;33;31846;-81
2022/01/07 12:32:08;;;;;;;;;;;4.40;99.90;;;;;;4274276;33;20011;-81
2022/01/07 12:34:37;;;;;;;;;;;4.40;99.90;;;;;;4273185;33;20007;-81
2022/01/07 12:37:08;;;;;;;;;;;4.40;99.90;;;;;;4271531;33;37550;-82
2022/01/07 12:39:39;;;;;;;;;;;4.30;99.90;;;;;;4271523;33;37518;-82
2022/01/07 12:42:10;;;;;;;;;;;4.40;99.90;;;;;;4260191;33;37358;-82
2022/01/07 12:44:38;;;;;;;;;;;4.40;99.90;;;;;;4271890;33;31645;-82
2022/01/07 12:47:08;;;;;;;;;;;4.40;99.90;;;;;;4272696;33;20016;-82
2022/01/07 12:49:39;;;;;;;;;;;4.40;99.90;;;;;;4260498;33;23313;-82
2022/01/07 12:52:29;;;;;;;;;;;4.40;99.90;;;;;;4273784;33;20007;-82
2022/01/07 12:55:03;;;;;;;;;;;4.40;99.90;;;;;;4260512;33;33627;-81
2022/01/07 12:57:37;;;;;;;;;;;4.40;99.90;;;;;;4274314;33;20014;-82
2022/01/07 13:00:13;;;;;;;;;;;4.40;99.90;;;;;;4260912;33;20015;-82
2022/01/07 13:02:53;;;;;;;;;;;4.40;99.90;;;;;;4269857;33;20444;-82
2022/01/07 13:05:40;;;;;;;;;;;4.40;99.90;;;;;;4233885;33;42450;-82
2022/01/07 13:08:11;;;;;;;;;;;4.40;99.90;;;;;;4258911;33;34043;-81
2022/01/07 13:10:43;;;;;;;;;;;4.40;99.90;;;;;;4258926;33;32448;-82
2022/01/07 13:13:14;;;;;;;;;;;4.40;99.90;;;;;;4269476;33;33638;-82
2022/01/07 13:15:51;;;;;;;;;;;4.40;99.90;;;;;;4246790;33;20011;-81
2022/01/07 13:18:19;;;;;;;;;;;4.40;99.90;;;;;;4269375;33;32750;-82
2022/01/07 13:20:49;;;;;;;;;;;4.40;99.90;;;;;;4270156;33;20034;-82
2022/01/07 13:23:19;;;;;;;;;;;4.40;99.90;;;;;;4259685;33;20018;-82
2022/01/07 13:25:52;;;;;;;;;;;4.40;99.90;;;;;;4270280;33;20047;-82
2022/01/07 13:28:32;;;;;;;;;;;4.40;99.90;;;;;;4259691;33;19999;-82
2022/01/07 13:31:03;;;;;;;;;;;4.40;99.90;;;;;;4259518;33;20015;-81
2022/01/07 13:33:34;;;;;;;;;;;4.40;99.90;;;;;;4259483;33;20401;-82
2022/01/07 13:36:33;;;;;;;;;;;4.40;99.90;;;;;;4236089;33;33396;-81
2022/01/07 13:39:00;;;;;;;;;;;4.40;99.90;;;;;;4269351;33;37160;-82
2022/01/07 13:41:27;;;;;;;;;;;4.30;99.90;;;;;;4259155;33;36875;-81
2022/01/07 13:44:01;;;;;;;;;;;4.30;99.90;;;;;;4271832;33;38963;-81
2022/01/07 13:46:28;;;;;;;;;;;4.30;99.90;;;;;;4247665;33;37201;-82
2022/01/07 13:49:00;;;;;;;;;;;4.30;99.90;;;;;;4261100;33;31749;-82
2022/01/07 13:51:33;;;;;;;;;;;4.20;99.90;;;;;;4272760;33;20018;-82
2022/01/07 13:54:12;;;;;;;;;;;4.20;99.90;;;;;;4248366;33;24250;-82
2022/01/07 13:56:41;;;;;;;;;;;4.20;99.90;;;;;;4261026;33;38715;-82
2022/01/07 13:59:10;;;;;;;;;;;4.20;99.90;;;;;;4235689;33;44668;-81
2022/01/07 14:01:52;;;;;;;;;;;4.20;99.90;;;;;;4250169;33;20004;-82
2022/01/07 14:04:37;;;;;;;;;;;4.20;99.90;;;;;;4275892;33;20006;-81
2022/01/07 14:07:26;;;;;;;;;;;4.20;99.90;;;;;;4274644;33;20022;-82
2022/01/07 14:10:12;;;;;;;;;;;4.20;99.90;;;;;;4261982;33;28129;-82
2022/01/07 14:12:48;;;;;;;;;;;4.20;99.90;;;;;;4262936;33;20433;-81
2022/01/07 14:15:16;;;;;;;;;;;4.20;99.90;;;;;;4261712;33;45286;-81
2022/01/07 14:17:44;;;;;;;;;;;4.20;99.90;;;;;;4273429;33;43989;-82
2022/01/07 14:20:12;;;;;;;;;;;4.20;99.90;;;;;;4262259;33;20054;-82
2022/01/07 14:22:43;;;;;;;;;;;4.20;99.90;;;;;;4261575;33;36093;-82
2022/01/07 14:25:29;;;;;;;;;;;4.20;99.90;;;;;;4262526;33;20381;-81
2022/01/07 14:27:56;;;;;;;;;;;4.20;99.90;;;;;;4274614;33;42873;-81
2022/01/07 14:30:23;;;;;;;;;;;4.20;99.90;;;;;;4273789;33;30238;-82
2022/01/07 14:32:50;;;;;;;;;;;4.20;99.90;;;;;;4273032;33;40364;-82
2022/01/07 14:35:17;;;;;;;;;;;4.20;99.90;;;;;;4274098;33;41495;-81
2022/01/07 14:37:44;;;;;;;;;;;4.20;99.90;;;;;;4261182;33;43642;-82
2022/01/07 14:40:11;;;;;;;;;;;4.20;99.90;;;;;;4273890;33;41969;-82
2022/01/07 14:42:38;;;;;;;;;;;4.20;99.90;;;;;;4273620;33;33305;-81
2022/01/07 14:45:10;;;;;;;;;;;4.20;99.90;;;;;;4273139;33;45573;-82
2022/01/07 14:47:38;;;;;;;;;;;4.20;99.90;;;;;;4261324;33;37324;-81
2022/01/07 14:50:05;;;;;;;;;;;4.20;99.90;;;;;;4273886;33;42940;-81
2022/01/07 14:52:50;;;;;;;;;;;4.20;99.90;;;;;;4252087;33;20015;-81
2022/01/07 14:55:24;;;;;;;;;;;4.20;99.90;;;;;;4272492;33;45373;-82